Aggersund, Denmark

6:19 PM CET on March 27, 2015 (GMT +0100)
Halvrimmen | | Change Station
CLOSE
Current Station
Personal Weather Station
Location: Brovst, JYLLAND
Elevation: 13 ft
Nearby Weather Stations

Elev 13 ft 57.12 °N, 9.59 °E | Updated 2 minutes ago

Scattered Clouds
Scattered Clouds
41.8 °F
Feels Like 42 °F
N
1.0
Wind Variable Wind from SW
Gusts 5.0 mph

Today
High -- | Low -- °F
--% Chance of Precip.
Yesterday
High -- | Low -- °F
Precip. -- in
6:06 AM 6:50 PM
First Quarter, 54% visible
Pressure 29.92 in
Visibility 6.2 miles
Clouds Few 1900 ft
Scattered Clouds 20000 ft
Windchill 42 °F
Dew Point 36 °F
Humidity 80%
Rainfall 0.00 in
Snow Depth Not available.
UV 0.0 out of 12
Pollen Not available.
Air Quality Not available.
Flu Activity Not available.
METAR EKYT 271650Z 28010KT 9999 FEW019 SCT200 07/01 Q1013

More Conditions Fewer Conditions

Pressure 29.92 in
Visibility 6.2 miles
Clouds Few 1900 ft
Scattered Clouds 20000 ft
Windchill 42 °F
Dew Point 36 °F
Humidity 80%
Rainfall 0.00 in
Snow Depth Not available.
UV 0.0 out of 12
Pollen Not available.
Air Quality Not available.
Flu Activity Not available.
METAR EKYT 271650Z 28010KT 9999 FEW019 SCT200 07/01 Q1013

More Conditions Fewer Conditions

10-Day Weather Forecast

Almanac

Astronomy

Mar. 27, 2015 Rise Set
Actual Time
Civil Twilight
Nautical Twilight
Astronomical Twilight
Moon
Length of Visible Light
Length of Day
Tomorrow will be .
, % of the Moon is Illuminated

Today's Extremes

Country Highs Country Lows

Community

WunderPhotos

Upload Photos

1,808,768 photos uploaded!

WunderBlogs® & News

Nearby

Air Quality

  Air Quality AQ Index Pollutant
Not available.

Snow Depth

Station Depth Elevation

Earthquake Activity

City Distance Mag. Time & Date
Minimum magnitude displayed is 2.5.

Coastal Water Temperatures

Place Temperature

Stations

Nearby Weather Stations

Station Location Temp. Windchill Dew Point Humidity Wind Precip. Elev Updated Type